IDs: Format: Raw Decoded Include TAF

Data at: 1342 UTC 18 Mar 2018

METAR for:KSPB (Scappoose Ind Airpar, OR, US)
Text:KSPB 181253Z AUTO 28003KT 10SM OVC060 03/03 A3012 RMK AO2 SLP198 T00280028
Temperature: 2.8°C ( 37°F)
Dewpoint: 2.8°C ( 37°F) [RH = 100%]
Pressure (altimeter):30.12 inches Hg (1020.1 mb) [Sea level pressure: 1019.8 mb]
Winds:from the W (280 degrees) at 3 MPH (3 knots; 1.5 m/s)
Visibility:10 or more sm (16+ km)
Ceiling:6000 feet AGL
Clouds: overcast cloud deck at 6000 feet AGL
QC Flag:automated observation with no human augmentation